createdAt,value
2023-01-26T00:01:14.344Z,13.10
2023-01-26T00:03:41.444Z,12.80
2023-01-26T00:06:10.625Z,12.10
2023-01-26T00:08:41.403Z,12.80
2023-01-26T00:11:10.464Z,13.30
2023-01-26T00:13:38.216Z,13.40
2023-01-26T00:16:08.302Z,13.90
2023-01-26T00:18:37.583Z,13.20
2023-01-26T00:21:04.334Z,14.00
2023-01-26T00:23:33.510Z,13.30
2023-01-26T00:26:00.534Z,14.20
2023-01-26T00:28:28.522Z,14.30
2023-01-26T00:31:06.061Z,14.50
2023-01-26T00:33:32.908Z,13.90
2023-01-26T00:35:59.882Z,14.00
2023-01-26T00:38:26.346Z,12.20
2023-01-26T00:40:52.828Z,12.90
2023-01-26T00:43:19.405Z,12.50
2023-01-26T00:45:45.900Z,12.50
2023-01-26T00:48:12.371Z,13.20
2023-01-26T00:50:38.852Z,14.70
2023-01-26T00:53:05.339Z,12.70
2023-01-26T00:55:31.983Z,13.90
2023-01-26T00:58:02.156Z,12.50
2023-01-26T01:00:28.729Z,13.90
2023-01-26T01:02:57.061Z,13.90
2023-01-26T01:05:24.199Z,14.10
2023-01-26T01:07:50.680Z,14.50
2023-01-26T01:10:17.333Z,15.20
2023-01-26T01:12:44.991Z,14.20
2023-01-26T01:15:12.104Z,12.80
2023-01-26T01:17:38.697Z,13.00
2023-01-26T01:20:07.335Z,13.50
2023-01-26T01:22:35.101Z,12.00
2023-01-26T01:25:01.734Z,13.00
2023-01-26T01:27:28.596Z,13.40
2023-01-26T01:29:55.071Z,12.90
2023-01-26T01:32:21.934Z,12.60
2023-01-26T01:34:48.935Z,12.70
2023-01-26T01:37:16.926Z,11.90
2023-01-26T01:39:43.533Z,12.20
2023-01-26T01:42:10.076Z,11.50
2023-01-26T01:44:38.585Z,11.80
2023-01-26T01:47:25.004Z,11.80
2023-01-26T01:49:53.279Z,9.00
2023-01-26T01:52:26.401Z,9.30
2023-01-26T01:55:06.098Z,11.30
2023-01-26T01:57:40.718Z,10.90
2023-01-26T02:00:11.817Z,8.90
2023-01-26T02:02:39.046Z,9.90
2023-01-26T02:05:24.540Z,11.10
2023-01-26T02:07:51.649Z,10.50
2023-01-26T02:10:20.318Z,9.90
2023-01-26T02:12:48.798Z,10.70
2023-01-26T02:15:15.413Z,11.00
2023-01-26T02:17:41.990Z,10.90
2023-01-26T02:20:47.331Z,10.10
2023-01-26T02:23:44.901Z,10.10
2023-01-26T02:26:18.653Z,10.30
2023-01-26T02:28:46.599Z,10.30
2023-01-26T02:31:14.177Z,9.80
2023-01-26T02:33:41.376Z,9.70
2023-01-26T02:36:10.768Z,11.60
2023-01-26T02:38:42.430Z,12.90
2023-01-26T02:43:38.130Z,12.40
2023-01-26T02:46:04.840Z,12.00
2023-01-26T02:48:31.335Z,11.20
2023-01-26T02:50:57.791Z,12.70
2023-01-26T02:53:24.425Z,11.40
2023-01-26T02:55:50.964Z,11.10
2023-01-26T02:58:17.871Z,12.40
2023-01-26T03:00:44.394Z,13.10
2023-01-26T03:03:24.113Z,11.80
2023-01-26T03:05:51.566Z,12.60
2023-01-26T03:08:18.538Z,12.30
2023-01-26T03:10:45.069Z,13.30
2023-01-26T03:13:11.584Z,12.50
2023-01-26T03:15:38.120Z,12.10
2023-01-26T03:18:10.503Z,12.30
2023-01-26T03:20:38.799Z,13.20
2023-01-26T03:23:08.574Z,12.60
2023-01-26T03:25:36.418Z,12.00
2023-01-26T03:28:02.902Z,10.80
2023-01-26T03:30:29.462Z,11.70
2023-01-26T03:32:55.949Z,11.60
2023-01-26T03:35:22.452Z,12.20
2023-01-26T03:37:48.918Z,11.80
2023-01-26T03:40:15.548Z,11.50
2023-01-26T03:42:42.157Z,10.90
2023-01-26T03:45:09.163Z,12.10
2023-01-26T03:47:36.924Z,11.40
2023-01-26T03:50:03.728Z,10.20
2023-01-26T03:52:32.611Z,12.60
2023-01-26T03:54:59.065Z,12.40
2023-01-26T03:57:25.560Z,12.10
2023-01-26T03:59:52.067Z,11.00
2023-01-26T04:02:18.612Z,10.80
2023-01-26T04:04:45.081Z,10.60
2023-01-26T04:07:11.591Z,10.60
2023-01-26T04:09:38.521Z,10.50
2023-01-26T04:12:05.978Z,10.50
2023-01-26T04:14:34.393Z,9.70
2023-01-26T04:17:16.615Z,9.80
2023-01-26T04:19:43.142Z,10.80
2023-01-26T04:22:09.626Z,9.20
2023-01-26T04:24:36.101Z,10.60
2023-01-26T04:27:02.538Z,10.00
2023-01-26T04:29:28.987Z,10.10
2023-01-26T04:31:55.514Z,9.50
2023-01-26T04:34:22.111Z,9.40
2023-01-26T04:36:48.691Z,9.80
2023-01-26T04:39:15.215Z,10.20
2023-01-26T04:41:42.533Z,9.90
2023-01-26T04:44:09.113Z,9.50
2023-01-26T04:46:35.625Z,9.60
2023-01-26T04:49:02.170Z,8.50
2023-01-26T04:51:28.738Z,9.40
2023-01-26T04:53:55.341Z,8.70
2023-01-26T04:56:31.330Z,8.90
2023-01-26T04:59:04.952Z,8.60
2023-01-26T05:01:31.681Z,7.90
2023-01-26T05:04:02.812Z,8.30
2023-01-26T05:06:29.856Z,9.80
2023-01-26T05:08:57.186Z,8.90
2023-01-26T05:11:24.240Z,9.60
2023-01-26T05:13:50.816Z,11.50
2023-01-26T05:16:17.416Z,12.90
2023-01-26T05:18:44.374Z,11.30
2023-01-26T05:21:11.437Z,11.50
2023-01-26T05:23:38.062Z,11.50
2023-01-26T05:26:04.948Z,11.50
2023-01-26T05:28:31.420Z,10.10
2023-01-26T05:30:58.013Z,11.10
2023-01-26T05:33:24.520Z,9.50
2023-01-26T05:35:52.647Z,10.90
2023-01-26T05:38:19.363Z,10.60
2023-01-26T05:40:46.163Z,10.30
2023-01-26T05:43:13.073Z,10.00
2023-01-26T05:45:40.459Z,9.80
2023-01-26T05:48:07.252Z,8.50
2023-01-26T05:50:33.764Z,8.30
2023-01-26T05:53:00.256Z,8.50
2023-01-26T05:55:27.238Z,8.10
2023-01-26T05:57:53.706Z,9.30
2023-01-26T06:00:20.812Z,8.60
2023-01-26T06:02:48.637Z,8.50
2023-01-26T06:05:15.616Z,9.00
2023-01-26T06:07:42.093Z,9.00
2023-01-26T06:10:09.594Z,7.80
2023-01-26T06:12:36.353Z,7.90
2023-01-26T06:15:02.940Z,8.70
2023-01-26T06:17:29.431Z,8.60
2023-01-26T06:19:55.977Z,9.30
2023-01-26T06:22:22.688Z,10.10
2023-01-26T06:24:49.169Z,8.90
2023-01-26T06:27:17.474Z,7.90
2023-01-26T06:29:45.080Z,8.40
2023-01-26T06:32:12.990Z,8.10
2023-01-26T06:34:39.527Z,8.10
2023-01-26T06:37:06.006Z,7.80
2023-01-26T06:39:32.495Z,7.60
2023-01-26T06:41:59.088Z,7.70
2023-01-26T06:44:25.657Z,8.10
2023-01-26T06:46:52.146Z,8.70
2023-01-26T06:49:18.676Z,8.00
2023-01-26T06:51:53.707Z,9.40
2023-01-26T06:54:20.183Z,7.70
2023-01-26T06:56:46.802Z,8.00
2023-01-26T06:59:13.426Z,7.60
2023-01-26T07:01:43.208Z,7.70
2023-01-26T07:04:09.930Z,7.70
2023-01-26T07:06:36.838Z,6.80
2023-01-26T07:09:03.777Z,7.20
2023-01-26T07:11:30.377Z,8.00
2023-01-26T07:13:57.459Z,8.50
2023-01-26T07:16:24.466Z,8.30
2023-01-26T07:18:53.076Z,8.40
2023-01-26T07:21:19.521Z,8.60
2023-01-26T07:23:47.160Z,7.80
2023-01-26T07:26:13.907Z,8.90
2023-01-26T07:28:40.665Z,9.40
2023-01-26T07:31:08.596Z,8.50
2023-01-26T07:33:35.813Z,9.30
2023-01-26T07:36:02.735Z,8.60
2023-01-26T07:38:29.501Z,9.10
2023-01-26T07:40:56.779Z,8.50
2023-01-26T07:43:23.405Z,10.30
2023-01-26T07:45:52.423Z,8.70
2023-01-26T07:48:24.134Z,8.60
2023-01-26T07:50:51.083Z,7.40
2023-01-26T07:53:19.433Z,7.30
2023-01-26T07:55:47.219Z,8.00
2023-01-26T07:58:13.733Z,7.90
2023-01-26T08:00:40.513Z,8.40
2023-01-26T08:03:07.445Z,7.80
2023-01-26T08:05:34.056Z,7.40
2023-01-26T08:08:01.184Z,7.40
2023-01-26T08:10:28.602Z,8.30
2023-01-26T08:12:55.190Z,7.60
2023-01-26T08:15:21.665Z,9.00
2023-01-26T08:17:48.254Z,7.20
2023-01-26T08:20:14.786Z,8.20
2023-01-26T08:22:41.335Z,7.00
2023-01-26T08:25:08.444Z,8.00
2023-01-26T08:27:34.950Z,7.90
2023-01-26T08:30:01.634Z,8.40
2023-01-26T08:32:30.408Z,8.60
2023-01-26T08:34:57.110Z,7.20
2023-01-26T08:37:23.552Z,8.60
2023-01-26T08:39:50.067Z,8.20
2023-01-26T08:42:16.905Z,8.20
2023-01-26T08:44:43.472Z,7.90
2023-01-26T08:47:10.021Z,7.60
2023-01-26T08:49:38.507Z,8.10
2023-01-26T08:52:05.156Z,8.20
2023-01-26T08:54:31.655Z,8.00
2023-01-26T08:56:58.167Z,8.30
2023-01-26T08:59:24.675Z,7.30
2023-01-26T09:01:51.405Z,8.80
2023-01-26T09:04:17.980Z,7.80
2023-01-26T09:06:44.513Z,7.60
2023-01-26T09:09:10.993Z,8.40
2023-01-26T09:11:37.530Z,7.70
2023-01-26T09:14:04.022Z,7.60
2023-01-26T09:16:30.771Z,7.90
2023-01-26T09:18:57.522Z,8.30
2023-01-26T09:21:24.071Z,8.90
2023-01-26T09:23:50.702Z,9.20
2023-01-26T09:26:17.253Z,8.10
2023-01-26T09:28:43.853Z,8.90
2023-01-26T09:31:11.483Z,8.40
2023-01-26T09:33:38.187Z,9.00
2023-01-26T09:36:06.666Z,8.40
2023-01-26T09:38:33.274Z,7.70
2023-01-26T09:41:18.033Z,9.00
2023-01-26T09:43:51.198Z,9.60
2023-01-26T09:46:24.082Z,8.90
2023-01-26T09:49:06.158Z,8.40
2023-01-26T09:51:44.467Z,8.00
2023-01-26T09:54:26.283Z,7.60
2023-01-26T09:56:55.137Z,10.30
2023-01-26T09:59:38.195Z,8.40
2023-01-26T10:02:33.559Z,8.60
2023-01-26T10:05:07.964Z,9.00
2023-01-26T10:07:34.462Z,9.30
2023-01-26T10:10:02.594Z,9.30
2023-01-26T10:12:34.567Z,9.00
2023-01-26T10:15:00.995Z,8.20
2023-01-26T10:17:41.411Z,9.40
2023-01-26T10:20:29.621Z,9.00
2023-01-26T10:23:02.064Z,8.80
2023-01-26T10:25:33.565Z,9.70
2023-01-26T10:28:02.275Z,9.20
2023-01-26T10:30:28.897Z,8.90
2023-01-26T10:32:56.181Z,10.70
2023-01-26T10:35:24.673Z,9.40
2023-01-26T10:37:52.289Z,10.00
2023-01-26T10:40:19.911Z,9.90
2023-01-26T10:42:55.811Z,10.70
2023-01-26T10:45:25.135Z,9.30
2023-01-26T10:48:16.405Z,9.90
2023-01-26T10:50:43.364Z,9.10
2023-01-26T10:53:36.259Z,9.70
2023-01-26T10:56:20.904Z,9.60
2023-01-26T10:58:54.890Z,10.40
2023-01-26T11:01:21.630Z,11.60
2023-01-26T11:04:12.434Z,11.30
2023-01-26T11:06:39.311Z,10.90
2023-01-26T11:09:10.371Z,10.70
2023-01-26T11:11:37.540Z,10.50
2023-01-26T11:14:12.110Z,10.80
2023-01-26T11:16:38.848Z,11.20
2023-01-26T11:19:26.943Z,9.90
2023-01-26T11:22:00.077Z,9.30
2023-01-26T11:24:43.487Z,11.70
2023-01-26T11:27:28.224Z,9.40
2023-01-26T11:30:00.054Z,8.90
2023-01-26T11:32:26.479Z,9.90
2023-01-26T11:35:34.337Z,8.20
2023-01-26T11:38:22.305Z,9.60
2023-01-26T11:41:32.409Z,9.60
2023-01-26T11:44:34.443Z,9.80
2023-01-26T11:49:42.368Z,8.50
2023-01-26T11:52:29.078Z,10.20
2023-01-26T11:55:07.276Z,9.70
2023-01-26T11:57:43.573Z,23.80
2023-01-26T12:00:29.563Z,15.30
2023-01-26T12:03:06.349Z,10.10
2023-01-26T12:05:47.483Z,10.50
2023-01-26T12:08:29.016Z,9.80
2023-01-26T12:11:09.331Z,9.20
2023-01-26T12:13:43.704Z,10.00
2023-01-26T12:16:52.229Z,10.60
2023-01-26T12:19:39.889Z,9.40
2023-01-26T12:22:15.706Z,9.70
2023-01-26T12:25:16.579Z,9.50
2023-01-26T12:27:43.906Z,8.90
2023-01-26T12:30:10.850Z,8.10
2023-01-26T12:32:37.386Z,9.90
2023-01-26T12:35:04.529Z,9.80
2023-01-26T12:38:16.874Z,9.90
2023-01-26T12:40:54.011Z,10.20
2023-01-26T12:43:35.598Z,8.90
2023-01-26T12:46:03.806Z,10.10
2023-01-26T12:48:46.910Z,9.60
2023-01-26T12:51:25.767Z,10.40
2023-01-26T12:54:02.592Z,10.20
2023-01-26T12:56:39.317Z,9.20
2023-01-26T12:59:39.489Z,10.20
2023-01-26T13:02:15.479Z,9.60
2023-01-26T13:04:43.901Z,9.40
2023-01-26T13:07:34.137Z,10.60
2023-01-26T13:10:16.323Z,10.70
2023-01-26T13:12:55.012Z,21.70
2023-01-26T13:15:24.734Z,15.90
2023-01-26T13:17:53.903Z,12.50
2023-01-26T13:20:42.580Z,11.70
2023-01-26T13:23:28.063Z,10.60
2023-01-26T13:26:13.554Z,10.90
2023-01-26T13:28:40.161Z,10.80
2023-01-26T13:31:10.184Z,11.00
2023-01-26T13:33:37.559Z,11.60
2023-01-26T13:36:10.947Z,11.50
2023-01-26T13:38:42.638Z,11.40
2023-01-26T13:43:50.356Z,10.10
2023-01-26T13:46:49.080Z,10.30
2023-01-26T13:49:27.746Z,10.70
2023-01-26T13:51:54.303Z,10.90
2023-01-26T13:54:22.231Z,11.60
2023-01-26T13:57:06.493Z,13.30
2023-01-26T13:59:33.811Z,11.60
2023-01-26T14:02:01.158Z,12.10
2023-01-26T14:04:32.374Z,13.00
2023-01-26T14:07:07.596Z,12.70
2023-01-26T14:09:47.534Z,12.90
2023-01-26T14:12:22.318Z,10.70
2023-01-26T14:14:52.715Z,12.30
2023-01-26T14:17:34.158Z,12.50
2023-01-26T14:20:01.132Z,10.10
2023-01-26T14:22:28.039Z,12.10
2023-01-26T14:24:55.490Z,13.10
2023-01-26T14:27:37.899Z,11.40
2023-01-26T14:30:26.339Z,10.70
2023-01-26T14:33:14.384Z,11.90
2023-01-26T14:35:42.229Z,12.30
2023-01-26T14:38:11.518Z,13.70
2023-01-26T14:40:59.238Z,12.40
2023-01-26T14:43:27.394Z,12.70
2023-01-26T14:46:38.730Z,12.00
2023-01-26T14:49:14.833Z,11.50
2023-01-26T14:51:45.283Z,13.30
2023-01-26T14:54:22.022Z,12.70
2023-01-26T14:56:48.649Z,11.50
2023-01-26T14:59:22.337Z,13.10
2023-01-26T15:01:49.364Z,12.70
2023-01-26T15:04:34.087Z,11.40
2023-01-26T15:07:35.595Z,10.50
2023-01-26T15:10:22.748Z,10.30
2023-01-26T15:13:01.616Z,10.80
2023-01-26T15:15:31.135Z,9.80
2023-01-26T15:18:19.110Z,10.50
2023-01-26T15:20:48.307Z,9.80
2023-01-26T15:23:23.428Z,9.90
2023-01-26T15:25:50.552Z,9.60
2023-01-26T15:28:19.986Z,9.80
2023-01-26T15:30:50.485Z,10.80
2023-01-26T15:33:53.060Z,9.70
2023-01-26T15:36:30.678Z,9.00
2023-01-26T15:39:04.580Z,10.00
2023-01-26T15:41:31.133Z,9.80
2023-01-26T15:43:58.082Z,9.00
2023-01-26T15:46:24.908Z,7.80
2023-01-26T15:48:51.450Z,9.60
2023-01-26T15:51:18.111Z,10.30
2023-01-26T15:53:44.663Z,9.30
2023-01-26T15:56:15.592Z,9.90
2023-01-26T15:58:45.265Z,9.80
2023-01-26T16:01:20.413Z,9.90
2023-01-26T16:03:47.039Z,11.30
2023-01-26T16:06:21.109Z,10.80
2023-01-26T16:08:47.856Z,10.50
2023-01-26T16:11:15.418Z,11.40
2023-01-26T16:13:42.944Z,10.60
2023-01-26T16:16:12.286Z,11.00
2023-01-26T16:18:38.983Z,10.90
2023-01-26T16:21:27.267Z,11.20
2023-01-26T16:23:54.622Z,10.20
2023-01-26T16:26:23.559Z,9.50
2023-01-26T16:28:50.161Z,9.90
2023-01-26T16:31:20.319Z,9.90
2023-01-26T16:33:48.324Z,10.50
2023-01-26T16:36:17.465Z,10.80
2023-01-26T16:38:44.582Z,11.40
2023-01-26T16:41:23.152Z,11.40
2023-01-26T16:43:49.675Z,10.30
2023-01-26T16:46:16.217Z,11.40
2023-01-26T16:48:42.734Z,33.00
2023-01-26T16:51:30.280Z,39.70
2023-01-26T16:53:57.604Z,36.80
2023-01-26T16:56:25.260Z,42.80
2023-01-26T16:58:52.005Z,32.20
2023-01-26T17:01:23.007Z,13.90
2023-01-26T17:03:50.155Z,12.40
2023-01-26T17:06:19.124Z,12.30
2023-01-26T17:08:46.308Z,12.30
2023-01-26T17:11:21.508Z,12.10
2023-01-26T17:13:48.662Z,12.20
2023-01-26T17:16:21.037Z,22.50
2023-01-26T17:18:49.061Z,28.50
2023-01-26T17:21:17.396Z,26.10
2023-01-26T17:23:44.709Z,24.10
2023-01-26T17:26:13.703Z,24.10
2023-01-26T17:28:40.202Z,24.60
2023-01-26T17:31:08.492Z,20.40
2023-01-26T17:33:36.847Z,17.30
2023-01-26T17:36:04.796Z,19.80
2023-01-26T17:38:31.670Z,23.40
2023-01-26T17:40:59.234Z,25.80
2023-01-26T17:43:29.052Z,21.90
2023-01-26T17:46:02.971Z,20.00
2023-01-26T17:48:30.192Z,23.80
2023-01-26T17:50:56.775Z,21.30
2023-01-26T17:53:23.635Z,16.30
2023-01-26T17:55:52.068Z,18.60
2023-01-26T17:58:18.574Z,22.20
2023-01-26T18:00:45.221Z,19.20
2023-01-26T18:03:11.814Z,16.50
2023-01-26T18:05:38.525Z,19.60
2023-01-26T18:08:05.076Z,13.30
2023-01-26T18:10:31.560Z,11.70
2023-01-26T18:12:58.458Z,10.10
2023-01-26T18:15:26.281Z,10.20
2023-01-26T18:17:52.790Z,9.90
2023-01-26T18:20:20.475Z,9.10
2023-01-26T18:22:46.980Z,9.90
2023-01-26T18:25:13.752Z,8.90
2023-01-26T18:27:40.460Z,9.30
2023-01-26T18:30:07.709Z,9.80
2023-01-26T18:32:34.593Z,10.00
2023-01-26T18:35:01.165Z,10.10
2023-01-26T18:37:32.959Z,9.30
2023-01-26T18:40:00.238Z,10.60
2023-01-26T18:42:27.586Z,9.40
2023-01-26T18:44:54.129Z,10.80
2023-01-26T18:47:20.747Z,10.80
2023-01-26T18:49:47.262Z,10.00
2023-01-26T18:52:13.955Z,9.10
2023-01-26T18:54:40.620Z,9.80
2023-01-26T18:57:07.066Z,9.20
2023-01-26T18:59:33.597Z,9.10
2023-01-26T19:02:00.272Z,8.80
2023-01-26T19:04:26.972Z,9.40
2023-01-26T19:06:53.465Z,9.70
2023-01-26T19:09:20.156Z,8.90
2023-01-26T19:11:47.343Z,10.30
2023-01-26T19:14:14.204Z,9.60
2023-01-26T19:16:41.418Z,10.10
2023-01-26T19:19:08.311Z,8.60
2023-01-26T19:21:34.820Z,9.10
2023-01-26T19:24:01.682Z,9.00
2023-01-26T19:26:28.618Z,8.30
2023-01-26T19:28:55.566Z,9.60
2023-01-26T19:31:24.481Z,8.70
2023-01-26T19:33:51.471Z,8.90
2023-01-26T19:36:18.462Z,8.70
2023-01-26T19:38:45.203Z,9.10
2023-01-26T19:41:12.573Z,10.00
2023-01-26T19:43:39.099Z,9.20
2023-01-26T19:46:06.096Z,9.50
2023-01-26T19:48:32.555Z,9.50
2023-01-26T19:51:07.935Z,11.30
2023-01-26T19:53:37.395Z,9.80
2023-01-26T19:56:16.274Z,9.80
2023-01-26T19:58:43.832Z,9.80
2023-01-26T20:01:12.528Z,10.70
2023-01-26T20:03:40.122Z,10.20
2023-01-26T20:06:15.242Z,10.70
2023-01-26T20:08:42.394Z,11.20
2023-01-26T20:11:10.481Z,11.50
2023-01-26T20:13:37.546Z,11.00
2023-01-26T20:16:04.623Z,10.50
2023-01-26T20:18:31.131Z,10.00
2023-01-26T20:21:00.642Z,12.30
2023-01-26T20:23:27.878Z,12.30
2023-01-26T20:26:10.651Z,11.40
2023-01-26T20:28:40.608Z,12.50
2023-01-26T20:31:16.918Z,13.70
2023-01-26T20:33:45.331Z,13.20
2023-01-26T20:36:14.998Z,14.00
2023-01-26T20:38:41.533Z,11.50
2023-01-26T20:41:13.061Z,12.30
2023-01-26T20:43:49.516Z,11.20
2023-01-26T20:46:24.102Z,10.80
2023-01-26T20:48:50.600Z,12.80
2023-01-26T20:51:20.564Z,11.80
2023-01-26T20:53:48.592Z,15.00
2023-01-26T20:56:16.719Z,15.80
2023-01-26T20:58:43.615Z,15.80
2023-01-26T21:01:13.443Z,15.30
2023-01-26T21:03:41.361Z,15.30
2023-01-26T21:06:10.425Z,15.70
2023-01-26T21:08:38.790Z,15.60
2023-01-26T21:11:07.629Z,15.70
2023-01-26T21:13:35.472Z,15.50
2023-01-26T21:16:02.943Z,14.80
2023-01-26T21:18:29.718Z,15.10
2023-01-26T21:21:05.422Z,15.30
2023-01-26T21:23:33.931Z,12.80
2023-01-26T21:26:03.015Z,13.70
2023-01-26T21:28:30.402Z,12.70
2023-01-26T21:31:00.770Z,12.30
2023-01-26T21:33:29.127Z,12.80
2023-01-26T21:35:57.226Z,12.40
2023-01-26T21:38:25.392Z,12.90
2023-01-26T21:41:05.201Z,11.90
2023-01-26T21:43:31.663Z,13.10
2023-01-26T21:45:59.022Z,12.40
2023-01-26T21:48:25.690Z,14.10
2023-01-26T21:50:56.120Z,13.60
2023-01-26T21:53:22.868Z,14.90
2023-01-26T21:55:49.369Z,13.80
2023-01-26T21:58:15.901Z,15.00
2023-01-26T22:00:42.467Z,14.60
2023-01-26T22:03:08.972Z,13.80
2023-01-26T22:05:35.430Z,12.00
2023-01-26T22:08:01.968Z,12.10
2023-01-26T22:10:28.452Z,11.20
2023-01-26T22:12:59.956Z,10.90
2023-01-26T22:15:26.481Z,14.90
2023-01-26T22:17:52.938Z,11.20
2023-01-26T22:20:19.489Z,11.00
2023-01-26T22:22:46.015Z,11.50
2023-01-26T22:25:12.549Z,11.10
2023-01-26T22:27:39.950Z,11.40
2023-01-26T22:30:07.040Z,10.70
2023-01-26T22:32:33.609Z,10.60
2023-01-26T22:35:00.161Z,10.30
2023-01-26T22:37:26.640Z,11.20
2023-01-26T22:39:53.161Z,10.70
2023-01-26T22:42:21.409Z,11.10
2023-01-26T22:44:47.898Z,10.30
2023-01-26T22:47:14.401Z,10.50
2023-01-26T22:49:40.937Z,9.60
2023-01-26T22:52:07.445Z,10.60
2023-01-26T22:54:34.133Z,11.00
2023-01-26T22:57:00.659Z,10.40
2023-01-26T22:59:27.408Z,10.10
2023-01-26T23:01:54.402Z,10.60
2023-01-26T23:04:21.051Z,11.60
2023-01-26T23:06:47.543Z,11.10
2023-01-26T23:09:14.060Z,11.00
2023-01-26T23:11:40.616Z,10.70
2023-01-26T23:14:07.345Z,10.20
2023-01-26T23:16:33.851Z,10.90
2023-01-26T23:19:00.322Z,10.10
2023-01-26T23:21:28.258Z,10.80
2023-01-26T23:23:55.090Z,10.70
2023-01-26T23:26:22.147Z,10.50
2023-01-26T23:28:48.682Z,11.00
2023-01-26T23:31:16.958Z,10.10
2023-01-26T23:33:44.169Z,11.00
2023-01-26T23:36:12.582Z,11.30
2023-01-26T23:38:39.412Z,11.20
2023-01-26T23:41:06.997Z,11.20
2023-01-26T23:43:33.485Z,11.10
2023-01-26T23:46:00.292Z,13.10
2023-01-26T23:48:26.922Z,11.60
2023-01-26T23:50:57.995Z,11.50
2023-01-26T23:53:24.577Z,11.40
2023-01-26T23:55:51.255Z,12.10
2023-01-26T23:58:19.041Z,12.30
